Time;durP1;ratioP1;P1;durP2;ratioP2;P2;SDS_P1;SDS_P2;PMS_P1;PMS_P2;Temp;Humidity;BMP_temperature;BMP_pressure;BME280_temperature;BME280_humidity;BME280_pressure;Samples;Min_cycle;Max_cycle;Signal;HPM_P1;HPM_P2
2023/11/09 00:04:01;;;;;;;24.50;13.90;;;;;;;4.87;84.26;98505.13;435563;1251;112114;-40
2023/11/09 00:14:08;;;;;;;25.40;14.90;;;;;;;4.75;84.43;98506.68;435409;1253;107423;-39
2023/11/09 00:24:11;;;;;;;29.10;17.40;;;;;;;4.54;84.69;98508.04;435333;1251;98004;-41
2023/11/09 00:34:15;;;;;;;24.20;14.90;;;;;;;4.40;84.50;98508.96;435348;1254;106936;-40
2023/11/09 00:44:19;;;;;;;22.20;13.70;;;;;;;4.30;84.43;98505.61;435372;1251;426627;-42
2023/11/09 00:54:23;;;;;;;19.40;13.50;;;;;;;4.14;84.54;98506.64;435436;1253;111003;-40
2023/11/09 01:04:26;;;;;;;16.50;10.30;;;;;;;4.00;84.61;98491.52;435456;1264;107487;-41
2023/11/09 01:14:31;;;;;;;24.20;13.60;;;;;;;3.83;84.83;98482.63;435579;1251;97922;-41
2023/11/09 01:24:34;;;;;;;30.20;16.90;;;;;;;3.66;85.05;98476.78;435534;1253;108824;-41
2023/11/09 01:34:38;;;;;;;19.40;12.60;;;;;;;3.58;85.10;98471.50;435334;1254;99443;-40
2023/11/09 01:44:41;;;;;;;20.60;10.80;;;;;;;3.56;85.30;98472.73;435526;1251;111893;-40
2023/11/09 01:54:46;;;;;;;15.50;9.90;;;;;;;3.61;85.62;98479.24;435431;1249;109314;-41
2023/11/09 02:04:50;;;;;;;16.60;10.40;;;;;;;3.69;85.82;98475.15;435562;1253;98001;-41
2023/11/09 02:14:54;;;;;;;14.20;9.00;;;;;;;3.71;85.88;98467.08;436333;1253;108109;-40
2023/11/09 02:24:59;;;;;;;21.30;11.40;;;;;;;3.62;85.91;98459.30;435302;1254;99215;-41
2023/11/09 02:35:04;;;;;;;19.60;12.50;;;;;;;3.46;86.05;98458.79;435342;1249;111316;-39
2023/11/09 02:45:09;;;;;;;18.00;11.70;;;;;;;3.36;85.95;98459.40;435418;1254;99209;-40
2023/11/09 02:55:12;;;;;;;20.70;11.90;;;;;;;3.27;86.00;98459.10;435230;1253;99321;-40
2023/11/09 03:15:22;;;;;;;18.80;12.00;;;;;;;3.19;86.46;98457.06;435230;1254;108703;-40
2023/11/09 03:25:26;;;;;;;21.20;12.10;;;;;;;3.19;86.67;98455.89;435207;1254;99209;-41
2023/11/09 03:35:30;;;;;;;32.70;19.20;;;;;;;3.12;86.78;98455.55;435449;1253;108254;-39
2023/11/09 03:45:34;;;;;;;33.30;19.80;;;;;;;3.00;86.96;98447.75;435372;1250;118300;-41
2023/11/09 03:55:37;;;;;;;25.30;14.80;;;;;;;2.93;87.06;98446.02;435271;1254;111721;-39
2023/11/09 04:05:41;;;;;;;25.30;13.30;;;;;;;2.89;87.40;98437.77;435304;1254;108341;-40
2023/11/09 04:15:45;;;;;;;31.70;16.10;;;;;;;2.84;87.61;98433.96;435368;1254;99215;-40
2023/11/09 04:35:55;;;;;;;25.10;15.20;;;;;;;2.76;87.61;98413.83;435322;1255;99208;-40
2023/11/09 04:46:05;;;;;;;32.80;22.10;;;;;;;2.68;87.70;98407.41;435394;1254;111878;-40
2023/11/09 05:16:37;;;;;;;27.60;17.90;;;;;;;2.56;88.10;98389.75;435213;1250;107311;-41
2023/11/09 05:26:41;;;;;;;33.20;20.30;;;;;;;2.54;88.26;98385.60;435215;1256;99218;-40
2023/11/09 05:36:45;;;;;;;34.00;20.30;;;;;;;2.55;88.51;98378.38;435347;1254;112974;-41
2023/11/09 05:46:49;;;;;;;30.10;20.20;;;;;;;2.62;88.55;98381.68;435234;1253;107326;-40
2023/11/09 05:56:52;;;;;;;38.00;25.20;;;;;;;2.69;88.74;98365.86;435433;1254;99298;-40
2023/11/09 06:06:56;;;;;;;34.20;22.10;;;;;;;2.74;88.82;98362.77;435450;1249;108074;-41
2023/11/09 06:17:01;;;;;;;37.60;23.50;;;;;;;2.82;88.61;98359.90;435352;1251;99309;-40
2023/11/09 06:27:07;;;;;;;35.90;21.20;;;;;;;2.98;88.63;98370.27;435284;1253;111881;-40
2023/11/09 06:37:10;;;;;;;32.60;20.00;;;;;;;3.20;88.68;98365.30;435129;1250;107856;-40
2023/11/09 06:57:17;;;;;;;55.60;30.70;;;;;;;3.54;88.93;98352.37;435302;1254;107795;-41
2023/11/09 07:07:21;;;;;;;31.00;16.50;;;;;;;3.73;88.86;98341.26;435412;1272;99851;-44
2023/11/09 07:17:25;;;;;;;23.60;12.90;;;;;;;4.81;89.96;98335.25;435358;1256;111221;-39
2023/11/09 07:27:29;;;;;;;21.10;13.20;;;;;;;7.02;90.10;98334.67;435203;1255;107873;-39
2023/11/09 07:37:33;;;;;;;19.30;10.60;;;;;;;8.64;88.87;98327.81;435465;1256;99221;-39
2023/11/09 07:47:37;;;;;;;15.70;9.80;;;;;;;9.63;87.32;98317.86;435357;1255;108061;-40
2023/11/09 07:57:41;;;;;;;16.30;9.00;;;;;;;10.15;85.85;98311.45;435284;1256;98027;-40
2023/11/09 08:07:45;;;;;;;19.40;8.60;;;;;;;10.75;84.05;98305.56;435372;1256;111364;-41
2023/11/09 08:17:49;;;;;;;14.00;6.40;;;;;;;10.68;82.30;98298.83;435283;1254;107829;-41
2023/11/09 08:27:53;;;;;;;16.00;6.90;;;;;;;10.12;80.16;98294.34;435393;1254;99211;-41
2023/11/09 08:38:00;;;;;;;15.60;5.80;;;;;;;9.76;79.36;98288.52;435440;1254;107996;-41
2023/11/09 08:48:02;;;;;;;10.10;5.00;;;;;;;9.73;77.81;98282.71;435425;1250;99254;-41
2023/11/09 09:08:09;;;;;;;10.30;4.70;;;;;;;9.83;75.82;98277.59;435420;1250;108292;-41
2023/11/09 09:18:14;;;;;;;10.90;5.60;;;;;;;10.01;74.72;98269.80;435427;1250;99231;-40
2023/11/09 09:28:19;;;;;;;7.90;5.40;;;;;;;10.38;74.13;98267.09;435252;1254;109113;-41
2023/11/09 09:38:23;;;;;;;13.70;5.60;;;;;;;10.46;72.14;98251.48;435466;1250;98248;-41
2023/11/09 10:08:36;;;;;;;11.80;5.50;;;;;;;10.82;69.83;98217.91;435396;1250;98823;-41
2023/11/09 10:18:39;;;;;;;10.20;4.90;;;;;;;10.88;68.80;98202.52;435233;1250;108523;-41
2023/11/09 10:28:43;;;;;;;12.30;6.20;;;;;;;11.18;69.13;98201.73;435429;1255;99347;-41
2023/11/09 10:38:48;;;;;;;13.00;5.90;;;;;;;11.48;68.41;98191.17;435426;1250;111347;-42
2023/11/09 10:48:55;;;;;;;5.80;3.50;;;;;;;11.73;65.62;98175.84;435243;1256;108124;-40
2023/11/09 10:59:00;;;;;;;7.80;3.20;;;;;;;11.87;64.24;98163.69;435386;1250;98264;-40
2023/11/09 11:09:18;;;;;;;5.50;3.30;;;;;;;12.03;63.35;98157.05;435358;1253;108312;-40
2023/11/09 11:19:47;;;;;;;3.00;2.30;;;;;;;12.14;62.65;98150.34;435391;1255;98565;-41
2023/11/09 11:29:53;;;;;;;4.50;2.60;;;;;;;12.13;60.69;98145.67;435467;1253;111420;-40
2023/11/09 11:39:59;;;;;;;6.00;3.20;;;;;;;12.10;61.94;98140.34;435241;1263;108575;-41
2023/11/09 12:00:09;;;;;;;8.50;3.70;;;;;;;11.84;61.71;98133.27;435419;1255;108571;-40
2023/11/09 12:10:21;;;;;;;8.20;3.40;;;;;;;11.65;62.34;98121.75;435189;1250;99246;-41
2023/11/09 12:20:26;;;;;;;8.70;4.20;;;;;;;11.58;62.72;98108.30;435366;1253;112007;-40
2023/11/09 12:30:29;;;;;;;9.90;4.20;;;;;;;11.77;62.76;98098.23;435517;1263;106454;-40
2023/11/09 12:40:33;;;;;;;9.10;3.90;;;;;;;11.86;62.92;98092.95;434905;1252;485781;-40
2023/11/09 12:50:37;;;;;;;12.80;4.30;;;;;;;11.89;63.17;98080.59;435159;1264;107705;-39
2023/11/09 13:00:42;;;;;;;8.40;4.40;;;;;;;11.75;63.17;98071.20;435269;1250;99212;-42
2023/11/09 13:10:55;;;;;;;10.40;3.90;;;;;;;11.53;63.73;98069.08;435431;1255;112167;-39
2023/11/09 13:20:59;;;;;;;9.70;5.60;;;;;;;11.44;64.15;98065.75;435334;1254;107804;-40
2023/11/09 13:51:20;;;;;;;8.30;4.50;;;;;;;11.13;65.01;98050.38;435513;1253;99221;-41
2023/11/09 14:31:39;;;;;;;27.20;12.50;;;;;;;10.43;66.73;98044.21;435283;1251;108664;-41
2023/11/09 15:01:50;;;;;;;36.00;14.80;;;;;;;9.90;67.70;98033.08;435446;1251;107638;-41
2023/11/09 15:11:55;;;;;;;42.70;16.80;;;;;;;9.59;67.99;98025.80;435373;1251;99197;-41
2023/11/09 15:22:00;;;;;;;28.60;14.50;;;;;;;9.25;68.40;98024.92;435524;1254;108618;-40
2023/11/09 15:32:05;;;;;;;23.60;12.30;;;;;;;8.97;68.81;98020.39;435287;1251;99227;-41
2023/11/09 15:42:12;;;;;;;33.40;13.20;;;;;;;8.87;69.17;98020.39;435197;1254;111014;-40
2023/11/09 15:52:15;;;;;;;21.70;12.00;;;;;;;8.79;69.46;98020.19;435358;1250;107184;-41
2023/11/09 16:02:20;;;;;;;31.20;15.90;;;;;;;8.64;69.76;98012.69;435394;1251;99209;-41
2023/11/09 16:12:24;;;;;;;36.50;17.30;;;;;;;8.41;70.01;98021.05;435274;1253;108502;-41
2023/11/09 16:22:28;;;;;;;37.80;19.70;;;;;;;8.21;70.47;98020.36;435422;1253;99217;-40
2023/11/09 16:32:32;;;;;;;39.60;16.80;;;;;;;8.11;70.63;98024.89;435517;1253;111904;-40
2023/11/09 16:52:44;;;;;;;32.50;18.50;;;;;;;7.86;71.34;98026.86;435475;1253;99252;-41
2023/11/09 17:02:48;;;;;;;36.90;19.00;;;;;;;7.75;71.80;98024.02;435222;1254;109900;-40
2023/11/09 17:22:57;;;;;;;47.10;22.20;;;;;;;7.61;72.16;98011.16;435420;1251;112141;-41
2023/11/09 17:33:01;;;;;;;37.90;20.70;;;;;;;7.51;72.44;98003.05;435399;1254;108112;-41
2023/11/09 17:43:06;;;;;;;47.70;23.90;;;;;;;7.48;72.72;97999.82;435466;1249;98110;-42
2023/11/09 17:53:11;;;;;;;49.70;25.80;;;;;;;7.27;72.73;97992.27;435356;1254;109492;-41
2023/11/09 18:03:15;;;;;;;50.50;24.90;;;;;;;7.07;73.06;97984.41;435416;1251;98056;-41
2023/11/09 18:23:22;;;;;;;50.60;24.50;;;;;;;6.91;73.07;97978.80;435282;1255;108251;-41
2023/11/09 18:33:26;;;;;;;53.50;26.50;;;;;;;6.76;73.54;97974.94;435394;1250;99233;-41
2023/11/09 18:43:31;;;;;;;59.70;24.30;;;;;;;6.58;73.89;97966.66;435379;1254;108268;-40
2023/11/09 18:53:35;;;;;;;42.50;20.90;;;;;;;6.49;74.20;97958.86;435274;1254;99349;-40
2023/11/09 19:03:39;;;;;;;33.70;18.90;;;;;;;6.47;74.27;97953.19;435400;1254;112055;-41
2023/11/09 19:13:47;;;;;;;44.60;24.40;;;;;;;6.37;74.67;97943.52;435312;1251;109432;-39
2023/11/09 19:23:50;;;;;;;56.00;26.40;;;;;;;6.24;74.86;97936.02;435451;1250;99340;-41
2023/11/09 19:33:54;;;;;;;46.90;23.50;;;;;;;6.22;75.05;97937.14;435483;1250;108538;-41
2023/11/09 19:43:58;;;;;;;53.70;22.20;;;;;;;6.20;75.32;97927.32;435220;1254;99343;-39
2023/11/09 19:54:03;;;;;;;45.40;26.20;;;;;;;6.11;75.44;97917.86;435041;1253;111944;-41
2023/11/09 20:04:06;;;;;;;52.00;26.10;;;;;;;6.03;75.79;97918.88;435465;1253;107819;-40
2023/11/09 20:14:11;;;;;;;31.00;18.20;;;;;;;6.07;76.01;97902.52;435371;1253;98493;-40
2023/11/09 20:24:14;;;;;;;35.30;18.60;;;;;;;6.22;76.29;97891.77;435381;1254;109185;-41
2023/11/09 20:34:18;;;;;;;39.70;21.60;;;;;;;6.34;76.40;97883.11;435395;1254;99263;-40
2023/11/09 20:44:23;;;;;;;32.70;17.10;;;;;;;6.35;76.57;97880.83;435375;1254;111582;-42
2023/11/09 20:54:26;;;;;;;29.50;17.00;;;;;;;6.34;76.39;97877.93;435456;1253;108736;-42
2023/11/09 21:04:30;;;;;;;31.50;17.30;;;;;;;6.31;76.42;97871.86;435459;1253;99263;-40
2023/11/09 21:14:35;;;;;;;34.30;18.70;;;;;;;6.28;76.61;97861.65;435457;1253;108774;-41
2023/11/09 21:24:39;;;;;;;29.90;16.70;;;;;;;6.22;76.79;97859.48;435420;1250;97998;-41
2023/11/09 21:34:43;;;;;;;20.40;12.00;;;;;;;6.30;76.90;97850.56;435362;1254;112838;-41
2023/11/09 21:44:48;;;;;;;26.10;14.70;;;;;;;6.45;77.19;97840.69;435245;1249;107905;-39
2023/11/09 21:54:51;;;;;;;38.60;19.00;;;;;;;6.51;77.27;97840.89;435361;1254;99107;-41
2023/11/09 22:04:55;;;;;;;22.70;12.10;;;;;;;6.52;77.27;97833.56;435493;1250;108009;-41
2023/11/09 22:14:59;;;;;;;16.30;9.30;;;;;;;6.63;77.29;97827.55;435313;1253;99218;-41
2023/11/09 22:25:02;;;;;;;21.40;10.70;;;;;;;6.73;77.26;97820.13;435311;1250;112002;-40
2023/11/09 22:35:06;;;;;;;22.00;10.20;;;;;;;6.72;77.24;97813.34;435402;1254;108182;-39
2023/11/09 22:45:10;;;;;;;21.30;9.30;;;;;;;6.78;77.24;97813.02;435439;1250;98342;-41
2023/11/09 22:55:14;;;;;;;17.20;8.90;;;;;;;6.87;77.02;97817.48;435322;1255;108705;-41
2023/11/09 23:05:18;;;;;;;20.60;9.40;;;;;;;6.92;77.25;97813.52;435447;1250;99235;-41
2023/11/09 23:15:21;;;;;;;21.80;9.80;;;;;;;6.90;77.07;97817.42;435309;1249;111643;-41
2023/11/09 23:25:25;;;;;;;11.70;7.20;;;;;;;6.87;76.91;97813.34;435371;1254;108235;-41
2023/11/09 23:45:33;;;;;;;16.30;8.60;;;;;;;7.06;77.17;97787.29;435288;1249;108619;-41
2023/11/09 23:55:36;;;;;;;15.40;8.10;;;;;;;7.11;77.12;97772.39;435217;1254;99868;-40
